Airfield :
LOGIN :

Register | Disclaimer

   EN    FR    IT 

 










Legend :    VFR   Marginal VFR   IFR   Intensive IFR   Very Intensive IFR
Visi :
Ceiling :
>= 8 km
>= 3000ft
5 to 8 km
1000 to 3000 ft
1500m to 5 km
500 to 1000 ft
800 to 1500m
200 to 500 ft
< 800m
< 200 ft
Symbols :   Thunderstorms  Fog  Heavy snow  Heavy precipitations  Wind > 20 kt
SIGMETs :     Misc.  Thunderstorms  Icing  Turbulence  Mountain Waves  Volcanic Ashes






- Airport Elevation : 24 ft
- IATA code : SGD


EKSB - Sonderborg

CURRENT METAR :
  • 042050Z AUTO 26008KT 230V300 9999NDV RA BKN006/// BKN059/// 12/11 Q0989

EXPIRED METARs :
  • 042020Z AUTO 23006KT 190V290 7000NDV RA BKN007/// BKN034/// BKN065/// 13/13 Q0989
  • 041950Z AUTO 20005KT 160V220 8000NDV -RA BKN006/// BKN033/// BKN062/// 14/13 Q0989
  • 041920Z AUTO 21006KT 180V240 9999NDV -RA FEW006/// BKN057/// 14/13 Q0989
  • 041850Z AUTO 20004KT 150V250 2000NDV +RA BKN004/// 14/13 Q0989
  • 041820Z AUTO 16009KT 110V220 3100NDV +SHRA BKN005/// 14/13 Q0989

Expired Forecast.



MET'MAP, your aeronautical weather chart ! - Copyright ORBIFLY December 2007 - Disclaimer

ORBIFLY MET'MAP TEAM :

Programming & Development : Alexandra Zaïnal
Concept & original design : Baudouin d'Aumeries
Assistance for programming : Marc-Olivier Méhu
Technical & hardware support : Manuel Goepfert

Contact : metmap@orbifly.com




SOURCES & CREDITS :

   NOAA